createdAt,value
2019-01-08T00:00:05.776Z,3.80
2019-01-08T00:01:05.748Z,4.10
2019-01-08T00:02:05.725Z,4.10
2019-01-08T00:03:05.700Z,4.00
2019-01-08T00:04:05.679Z,3.90
2019-01-08T00:05:05.655Z,3.90
2019-01-08T00:06:05.629Z,4.30
2019-01-08T00:07:05.606Z,4.00
2019-01-08T00:08:05.580Z,4.30
2019-01-08T00:09:05.556Z,4.20
2019-01-08T00:10:05.534Z,4.00
2019-01-08T00:11:05.510Z,4.70
2019-01-08T00:12:05.485Z,4.10
2019-01-08T00:13:05.461Z,4.50
2019-01-08T00:14:05.437Z,4.20
2019-01-08T00:15:05.412Z,4.30
2019-01-08T00:16:05.389Z,3.90
2019-01-08T00:17:05.362Z,4.40
2019-01-08T00:18:05.340Z,5.20
2019-01-08T00:19:05.318Z,4.50
2019-01-08T00:20:05.293Z,5.30
2019-01-08T00:21:05.267Z,4.70
2019-01-08T00:22:05.249Z,5.00
2019-01-08T00:23:05.223Z,4.90
2019-01-08T00:24:05.201Z,5.00
2019-01-08T00:25:05.171Z,4.90
2019-01-08T00:26:05.149Z,4.80
2019-01-08T00:27:05.139Z,5.00
2019-01-08T00:28:05.104Z,4.90
2019-01-08T00:29:05.078Z,5.20
2019-01-08T00:30:05.055Z,5.00
2019-01-08T00:31:05.033Z,5.00
2019-01-08T00:32:05.005Z,5.00
2019-01-08T00:33:04.979Z,5.80
2019-01-08T00:34:04.956Z,5.00
2019-01-08T00:35:04.934Z,4.90
2019-01-08T00:36:04.920Z,4.60
2019-01-08T00:37:04.890Z,4.70
2019-01-08T00:38:04.861Z,4.70
2019-01-08T00:39:04.841Z,4.90
2019-01-08T00:40:04.816Z,5.60
2019-01-08T00:41:04.797Z,5.00
2019-01-08T00:42:04.766Z,5.50
2019-01-08T00:43:04.742Z,4.70
2019-01-08T00:44:04.722Z,5.00
2019-01-08T00:45:04.696Z,4.60
2019-01-08T00:46:04.671Z,5.20
2019-01-08T00:47:04.648Z,5.50
2019-01-08T00:48:04.635Z,5.50
2019-01-08T00:49:04.602Z,4.90
2019-01-08T00:50:04.575Z,5.00
2019-01-08T00:51:04.551Z,5.20
2019-01-08T00:52:04.532Z,5.00
2019-01-08T00:53:04.509Z,5.80
2019-01-08T00:54:04.478Z,4.70
2019-01-08T00:55:04.454Z,5.40
2019-01-08T00:56:04.432Z,5.00
2019-01-08T00:57:04.412Z,5.40
2019-01-08T00:58:04.385Z,5.60
2019-01-08T00:59:04.368Z,5.00
2019-01-08T01:00:04.335Z,5.00
2019-01-08T01:01:04.312Z,5.80
2019-01-08T01:02:04.306Z,5.20
2019-01-08T01:03:04.264Z,5.60
2019-01-08T01:04:04.245Z,5.00
2019-01-08T01:05:04.215Z,5.10
2019-01-08T01:06:04.189Z,5.70
2019-01-08T01:07:04.176Z,4.80
2019-01-08T01:08:04.161Z,5.00
2019-01-08T01:09:04.124Z,6.10
2019-01-08T01:10:04.101Z,5.00
2019-01-08T01:11:04.071Z,5.00
2019-01-08T01:12:04.051Z,5.50
2019-01-08T01:13:04.025Z,5.30
2019-01-08T01:14:04.000Z,5.20
2019-01-08T01:15:03.974Z,4.70
2019-01-08T01:16:03.952Z,5.10
2019-01-08T01:17:03.936Z,5.30
2019-01-08T01:18:03.908Z,5.90
2019-01-08T01:19:03.891Z,5.10
2019-01-08T01:20:03.855Z,5.40
2019-01-08T01:21:03.833Z,4.80
2019-01-08T01:22:03.809Z,5.50
2019-01-08T01:23:03.793Z,4.70
2019-01-08T01:24:03.760Z,5.30
2019-01-08T01:25:03.737Z,5.00
2019-01-08T01:26:03.716Z,5.10
2019-01-08T01:27:03.692Z,5.30
2019-01-08T01:28:03.668Z,6.00
2019-01-08T01:29:03.645Z,5.40
2019-01-08T01:30:03.619Z,5.70
2019-01-08T01:31:03.593Z,5.90
2019-01-08T01:32:03.569Z,5.40
2019-01-08T01:33:03.550Z,5.00
2019-01-08T01:34:03.526Z,4.80
2019-01-08T01:35:03.503Z,5.90
2019-01-08T01:36:03.475Z,5.90
2019-01-08T01:37:03.459Z,5.50
2019-01-08T01:38:03.427Z,5.30
2019-01-08T01:39:03.406Z,5.20
2019-01-08T01:40:03.381Z,5.10
2019-01-08T01:41:03.361Z,5.50
2019-01-08T01:42:03.336Z,5.70
2019-01-08T01:43:03.307Z,5.40
2019-01-08T01:44:03.283Z,5.00
2019-01-08T01:45:03.261Z,5.30
2019-01-08T01:46:03.243Z,5.20
2019-01-08T01:47:03.212Z,5.30
2019-01-08T01:48:03.190Z,6.00
2019-01-08T01:49:03.163Z,5.60
2019-01-08T01:50:03.142Z,6.00
2019-01-08T01:51:03.146Z,5.40
2019-01-08T01:52:03.097Z,5.40
2019-01-08T01:53:03.069Z,5.70
2019-01-08T01:54:03.049Z,5.30
2019-01-08T01:55:03.030Z,5.30
2019-01-08T01:56:03.002Z,5.50
2019-01-08T01:57:02.973Z,4.50
2019-01-08T01:58:02.959Z,4.60
2019-01-08T01:59:08.351Z,5.50
2019-01-08T02:00:02.903Z,4.60
2019-01-08T02:01:02.879Z,4.90
2019-01-08T02:02:02.859Z,5.20
2019-01-08T02:03:02.833Z,5.20
2019-01-08T02:04:02.806Z,4.90
2019-01-08T02:05:02.788Z,5.80
2019-01-08T02:06:02.759Z,5.50
2019-01-08T02:07:02.744Z,4.80
2019-01-08T02:08:02.714Z,5.80
2019-01-08T02:09:02.686Z,5.30
2019-01-08T02:10:02.662Z,5.60
2019-01-08T02:11:02.641Z,5.00
2019-01-08T02:12:02.614Z,5.80
2019-01-08T02:13:02.589Z,5.10
2019-01-08T02:14:02.570Z,5.70
2019-01-08T02:15:02.551Z,5.40
2019-01-08T02:16:02.520Z,5.40
2019-01-08T02:17:02.500Z,5.30
2019-01-08T02:18:02.472Z,4.80
2019-01-08T02:19:02.450Z,6.10
2019-01-08T02:20:02.423Z,5.40
2019-01-08T02:21:02.436Z,4.90
2019-01-08T02:22:02.377Z,5.40
2019-01-08T02:23:02.356Z,5.10
2019-01-08T02:24:02.329Z,5.40
2019-01-08T02:25:02.305Z,6.10
2019-01-08T02:26:02.282Z,5.10
2019-01-08T02:27:02.257Z,5.20
2019-01-08T02:28:02.272Z,5.20
2019-01-08T02:29:02.211Z,5.70
2019-01-08T02:30:02.197Z,5.30
2019-01-08T02:31:02.163Z,4.90
2019-01-08T02:32:02.146Z,5.70
2019-01-08T02:33:02.117Z,6.00
2019-01-08T02:34:02.102Z,4.80
2019-01-08T02:35:02.076Z,5.10
2019-01-08T02:36:02.043Z,6.10
2019-01-08T02:37:02.033Z,5.10
2019-01-08T02:38:01.994Z,6.20
2019-01-08T02:39:01.972Z,5.30
2019-01-08T02:40:01.948Z,4.70
2019-01-08T02:41:01.926Z,5.70
2019-01-08T02:42:02.037Z,6.30
2019-01-08T02:43:01.877Z,6.10
2019-01-08T02:44:01.945Z,5.50
2019-01-08T02:45:01.835Z,5.90
2019-01-08T02:46:01.822Z,5.80
2019-01-08T02:47:01.798Z,5.90
2019-01-08T02:48:01.760Z,5.90
2019-01-08T02:49:01.740Z,5.70
2019-01-08T02:50:01.718Z,6.40
2019-01-08T02:51:01.688Z,5.70
2019-01-08T02:52:01.661Z,5.20
2019-01-08T02:53:01.643Z,5.50
2019-01-08T02:54:01.612Z,5.20
2019-01-08T02:55:01.593Z,5.30
2019-01-08T02:56:01.566Z,5.10
2019-01-08T02:57:01.548Z,5.70
2019-01-08T02:58:01.519Z,6.80
2019-01-08T02:59:01.579Z,6.20
2019-01-08T03:00:01.469Z,5.40
2019-01-08T03:01:01.454Z,5.80
2019-01-08T03:02:01.421Z,6.00
2019-01-08T03:03:01.398Z,6.50
2019-01-08T03:04:01.373Z,6.90
2019-01-08T03:05:01.375Z,5.50
2019-01-08T03:06:01.326Z,5.70
2019-01-08T03:07:01.315Z,5.90
2019-01-08T03:08:01.298Z,5.50
2019-01-08T03:09:01.255Z,6.50
2019-01-08T03:10:01.231Z,5.10
2019-01-08T03:11:01.215Z,5.90
2019-01-08T03:12:01.183Z,6.10
2019-01-08T03:13:01.162Z,5.00
2019-01-08T03:14:01.135Z,5.70
2019-01-08T03:15:01.112Z,6.00
2019-01-08T03:16:01.089Z,5.30
2019-01-08T03:17:01.063Z,5.70
2019-01-08T03:18:01.039Z,6.20
2019-01-08T03:19:01.021Z,5.70
2019-01-08T03:20:00.991Z,5.70
2019-01-08T03:21:00.968Z,6.10
2019-01-08T03:22:00.943Z,5.90
2019-01-08T03:23:00.920Z,5.40
2019-01-08T03:24:00.895Z,5.80
2019-01-08T03:25:00.871Z,5.80
2019-01-08T03:26:00.852Z,6.10
2019-01-08T03:27:00.821Z,6.00
2019-01-08T03:28:00.798Z,5.60
2019-01-08T03:29:00.775Z,6.20
2019-01-08T03:30:00.755Z,6.20
2019-01-08T03:31:00.738Z,6.00
2019-01-08T03:32:00.703Z,5.50
2019-01-08T03:33:00.679Z,6.00
2019-01-08T03:34:00.655Z,5.70
2019-01-08T03:35:00.633Z,6.10
2019-01-08T03:36:00.607Z,5.80
2019-01-08T03:37:00.587Z,6.10
2019-01-08T03:38:00.562Z,5.60
2019-01-08T03:39:00.537Z,6.30
2019-01-08T03:40:00.511Z,5.20
2019-01-08T03:41:00.487Z,6.10
2019-01-08T03:42:00.462Z,5.90
2019-01-08T03:43:00.444Z,6.00
2019-01-08T03:44:00.416Z,6.20
2019-01-08T03:45:00.394Z,5.30
2019-01-08T03:46:00.371Z,5.80
2019-01-08T03:47:00.344Z,6.50
2019-01-08T03:48:00.318Z,6.40
2019-01-08T03:49:00.298Z,5.90
2019-01-08T03:50:00.275Z,6.30
2019-01-08T03:51:00.246Z,6.20
2019-01-08T03:52:00.230Z,6.20
2019-01-08T03:53:00.198Z,5.60
2019-01-08T03:54:00.176Z,6.30
2019-01-08T03:55:00.290Z,6.00
2019-01-08T03:56:00.134Z,5.70
2019-01-08T03:57:00.105Z,5.10
2019-01-08T03:58:00.085Z,5.60
2019-01-08T03:59:00.062Z,6.80
2019-01-08T04:00:00.036Z,5.60
2019-01-08T04:01:00.011Z,5.80
2019-01-08T04:01:59.983Z,6.30
2019-01-08T04:02:59.961Z,6.10
2019-01-08T04:03:59.938Z,6.80
2019-01-08T04:04:59.918Z,5.30
2019-01-08T04:05:59.892Z,6.00
2019-01-08T04:06:59.863Z,5.00
2019-01-08T04:07:59.844Z,5.70
2019-01-08T04:08:59.816Z,5.30
2019-01-08T04:09:59.795Z,6.60
2019-01-08T04:10:59.768Z,5.70
2019-01-08T04:11:59.744Z,5.10
2019-01-08T04:12:59.722Z,5.70
2019-01-08T04:13:59.700Z,6.90
2019-01-08T04:14:59.679Z,6.30
2019-01-08T04:16:00.370Z,5.60
2019-01-08T04:16:59.624Z,5.70
2019-01-08T04:17:59.599Z,6.10
2019-01-08T04:18:59.580Z,6.00
2019-01-08T04:19:59.552Z,6.00
2019-01-08T04:20:59.531Z,7.20
2019-01-08T04:21:59.509Z,6.50
2019-01-08T04:22:59.480Z,5.90
2019-01-08T04:23:59.546Z,6.20
2019-01-08T04:24:59.431Z,6.30
2019-01-08T04:25:59.409Z,6.70
2019-01-08T04:26:59.392Z,6.20
2019-01-08T04:27:59.358Z,5.50
2019-01-08T04:28:59.336Z,5.90
2019-01-08T04:29:59.309Z,6.50
2019-01-08T04:30:59.287Z,6.60
2019-01-08T04:31:59.262Z,6.30
2019-01-08T04:32:59.238Z,5.80
2019-01-08T04:33:59.230Z,5.80
2019-01-08T04:34:59.189Z,6.70
2019-01-08T04:35:59.168Z,5.60
2019-01-08T04:36:59.142Z,7.30
2019-01-08T04:37:59.117Z,6.00
2019-01-08T04:38:59.095Z,6.30
2019-01-08T04:39:59.078Z,6.50
2019-01-08T04:40:59.053Z,5.60
2019-01-08T04:41:59.022Z,6.90
2019-01-08T04:42:58.999Z,6.10
2019-01-08T04:43:58.973Z,7.00
2019-01-08T04:44:58.948Z,6.30
2019-01-08T04:45:58.926Z,6.20
2019-01-08T04:46:58.901Z,6.80
2019-01-08T04:47:58.878Z,6.20
2019-01-08T04:48:58.853Z,5.90
2019-01-08T04:49:58.833Z,5.20
2019-01-08T04:50:58.807Z,5.40
2019-01-08T04:51:58.785Z,6.10
2019-01-08T04:52:58.757Z,5.00
2019-01-08T04:53:58.740Z,5.20
2019-01-08T04:54:58.714Z,5.40
2019-01-08T04:55:58.683Z,4.90
2019-01-08T04:56:58.658Z,4.50
2019-01-08T04:57:58.636Z,5.30
2019-01-08T04:58:58.612Z,4.70
2019-01-08T04:59:59.048Z,5.50
2019-01-08T05:00:58.567Z,5.20
2019-01-08T05:01:58.537Z,5.10
2019-01-08T05:02:58.516Z,4.10
2019-01-08T05:03:58.492Z,4.50
2019-01-08T05:04:58.463Z,4.30
2019-01-08T05:05:58.441Z,4.50
2019-01-08T05:06:58.417Z,4.50
2019-01-08T05:07:58.399Z,4.20
2019-01-08T05:08:58.368Z,3.90
2019-01-08T05:09:58.342Z,3.90
2019-01-08T05:10:58.323Z,4.00
2019-01-08T05:11:58.298Z,4.50
2019-01-08T05:12:58.272Z,4.50
2019-01-08T05:13:58.248Z,4.90
2019-01-08T05:14:58.223Z,4.20
2019-01-08T05:15:58.199Z,4.30
2019-01-08T05:16:58.174Z,4.00
2019-01-08T05:17:58.151Z,3.70
2019-01-08T05:18:58.134Z,4.60
2019-01-08T05:19:58.100Z,4.60
2019-01-08T05:20:58.076Z,4.50
2019-01-08T05:21:58.053Z,3.50
2019-01-08T05:22:58.034Z,4.30
2019-01-08T05:23:58.005Z,4.20
2019-01-08T05:24:57.979Z,3.50
2019-01-08T05:25:57.959Z,3.50
2019-01-08T05:26:57.935Z,3.40
2019-01-08T05:27:57.907Z,3.20
2019-01-08T05:28:57.886Z,4.00
2019-01-08T05:29:57.871Z,3.90
2019-01-08T05:30:57.836Z,3.60
2019-01-08T05:31:57.818Z,4.00
2019-01-08T05:32:57.785Z,4.00
2019-01-08T05:33:57.766Z,4.00
2019-01-08T05:34:57.751Z,3.50
2019-01-08T05:35:57.715Z,3.30
2019-01-08T05:36:57.689Z,3.50
2019-01-08T05:37:57.669Z,4.20
2019-01-08T05:38:57.643Z,3.10
2019-01-08T05:39:57.617Z,3.70
2019-01-08T05:40:57.597Z,3.80
2019-01-08T05:41:57.570Z,3.70
2019-01-08T05:42:57.546Z,3.70
2019-01-08T05:43:57.519Z,3.50
2019-01-08T05:44:57.496Z,2.80
2019-01-08T05:45:57.472Z,3.30
2019-01-08T05:46:57.449Z,3.10
2019-01-08T05:47:57.422Z,3.30
2019-01-08T05:48:57.408Z,3.30
2019-01-08T05:49:57.376Z,3.30
2019-01-08T05:50:57.355Z,3.30
2019-01-08T05:51:57.333Z,3.00
2019-01-08T05:52:57.301Z,3.20
2019-01-08T05:53:57.280Z,3.40
2019-01-08T05:54:57.255Z,3.70
2019-01-08T05:55:57.228Z,3.40
2019-01-08T05:56:57.210Z,3.30
2019-01-08T05:57:57.181Z,3.40
2019-01-08T05:58:57.160Z,3.60
2019-01-08T05:59:57.214Z,4.00
2019-01-08T06:00:57.108Z,3.50
2019-01-08T06:01:57.084Z,3.80
2019-01-08T06:02:57.059Z,4.50
2019-01-08T06:03:57.033Z,3.90
2019-01-08T06:04:57.016Z,4.30
2019-01-08T06:05:56.985Z,4.60
2019-01-08T06:06:56.968Z,4.00
2019-01-08T06:07:56.936Z,4.10
2019-01-08T06:08:56.916Z,4.00
2019-01-08T06:09:56.890Z,4.80
2019-01-08T06:10:56.873Z,4.90
2019-01-08T06:11:56.846Z,4.60
2019-01-08T06:12:56.816Z,4.30
2019-01-08T06:13:56.790Z,4.70
2019-01-08T06:14:56.768Z,4.70
2019-01-08T06:15:56.742Z,4.10
2019-01-08T06:16:56.719Z,3.80
2019-01-08T06:17:56.700Z,4.60
2019-01-08T06:18:56.672Z,3.70
2019-01-08T06:19:56.652Z,4.50
2019-01-08T06:20:56.623Z,4.40
2019-01-08T06:21:56.596Z,4.60
2019-01-08T06:22:56.573Z,4.40
2019-01-08T06:23:56.555Z,4.50
2019-01-08T06:24:56.525Z,4.60
2019-01-08T06:25:56.501Z,4.90
2019-01-08T06:26:56.477Z,4.10
2019-01-08T06:27:56.455Z,4.60
2019-01-08T06:28:56.445Z,4.40
2019-01-08T06:29:56.413Z,4.20
2019-01-08T06:30:56.380Z,4.40
2019-01-08T06:31:56.359Z,3.70
2019-01-08T06:32:56.333Z,4.00
2019-01-08T06:33:56.307Z,3.70
2019-01-08T06:34:56.292Z,4.20
2019-01-08T06:35:56.268Z,4.20
2019-01-08T06:36:56.237Z,4.10
2019-01-08T06:37:56.211Z,4.10
2019-01-08T06:38:56.187Z,5.00
2019-01-08T06:39:56.162Z,4.00
2019-01-08T06:40:57.799Z,5.00
2019-01-08T06:41:56.119Z,4.50
2019-01-08T06:42:56.089Z,4.20
2019-01-08T06:43:56.066Z,3.80
2019-01-08T06:44:56.038Z,4.50
2019-01-08T06:45:56.018Z,5.10
2019-01-08T06:46:55.993Z,4.60
2019-01-08T06:47:55.970Z,4.10
2019-01-08T06:48:55.942Z,4.30
2019-01-08T06:49:55.927Z,4.30
2019-01-08T06:50:56.501Z,5.00
2019-01-08T06:51:55.871Z,3.80
2019-01-08T06:52:55.847Z,4.60
2019-01-08T06:53:55.824Z,4.50
2019-01-08T06:54:55.798Z,4.20
2019-01-08T06:55:55.773Z,4.20
2019-01-08T06:56:55.749Z,5.10
2019-01-08T06:57:55.724Z,5.20
2019-01-08T06:58:55.702Z,4.30
2019-01-08T06:59:55.684Z,3.80
2019-01-08T07:00:55.654Z,4.90
2019-01-08T07:01:55.628Z,4.40
2019-01-08T07:02:55.606Z,4.30
2019-01-08T07:03:55.581Z,4.70
2019-01-08T07:04:55.554Z,4.70
2019-01-08T07:05:55.533Z,4.20
2019-01-08T07:06:55.508Z,3.80
2019-01-08T07:07:55.482Z,4.70
2019-01-08T07:08:55.457Z,4.20
2019-01-08T07:09:55.438Z,4.50
2019-01-08T07:10:55.427Z,4.20
2019-01-08T07:11:55.386Z,4.70
2019-01-08T07:12:55.361Z,5.40
2019-01-08T07:13:55.341Z,5.00
2019-01-08T07:14:55.323Z,4.80
2019-01-08T07:15:55.288Z,4.50
2019-01-08T07:16:55.263Z,4.90
2019-01-08T07:17:55.251Z,5.20
2019-01-08T07:18:55.218Z,5.30
2019-01-08T07:19:55.191Z,4.70
2019-01-08T07:20:55.168Z,4.40
2019-01-08T07:21:55.145Z,4.00
2019-01-08T07:22:55.121Z,5.50
2019-01-08T07:23:55.096Z,4.40
2019-01-08T07:24:55.071Z,4.60
2019-01-08T07:25:55.055Z,5.20
2019-01-08T07:26:55.028Z,4.90
2019-01-08T07:27:55.006Z,4.80
2019-01-08T07:28:54.987Z,4.30
2019-01-08T07:29:54.955Z,4.50
2019-01-08T07:30:54.927Z,5.30
2019-01-08T07:31:54.903Z,5.10
2019-01-08T07:32:54.883Z,5.00
2019-01-08T07:33:54.852Z,4.50
2019-01-08T07:34:54.830Z,4.30
2019-01-08T07:35:54.807Z,4.80
2019-01-08T07:36:54.778Z,5.00
2019-01-08T07:37:54.755Z,6.00
2019-01-08T07:38:54.732Z,5.40
2019-01-08T07:39:54.707Z,5.10
2019-01-08T07:40:54.686Z,5.00
2019-01-08T07:41:54.660Z,5.00
2019-01-08T07:42:54.636Z,6.10
2019-01-08T07:43:54.610Z,5.20
2019-01-08T07:44:54.590Z,5.50
2019-01-08T07:45:54.567Z,6.00
2019-01-08T07:46:54.538Z,5.30
2019-01-08T07:47:54.519Z,5.80
2019-01-08T07:48:54.489Z,5.80
2019-01-08T07:49:54.468Z,5.90
2019-01-08T07:50:54.451Z,6.10
2019-01-08T07:51:54.447Z,4.50
2019-01-08T07:52:54.394Z,5.80
2019-01-08T07:53:54.374Z,5.40
2019-01-08T07:54:54.346Z,5.90
2019-01-08T07:55:54.320Z,5.80
2019-01-08T07:56:54.296Z,5.30
2019-01-08T07:57:54.271Z,5.50
2019-01-08T07:58:54.248Z,4.70
2019-01-08T07:59:54.228Z,4.20
2019-01-08T08:00:54.200Z,5.10
2019-01-08T08:01:54.175Z,5.30
2019-01-08T08:02:54.152Z,5.50
2019-01-08T08:03:54.130Z,5.40
2019-01-08T08:04:54.103Z,6.10
2019-01-08T08:05:54.078Z,5.40
2019-01-08T08:06:54.057Z,5.60
2019-01-08T08:07:54.528Z,5.60
2019-01-08T08:08:54.014Z,5.40
2019-01-08T08:09:53.983Z,5.40
2019-01-08T08:10:53.968Z,5.70
2019-01-08T08:11:53.941Z,5.30
2019-01-08T08:12:53.912Z,5.60
2019-01-08T08:13:53.888Z,5.20
2019-01-08T08:14:53.861Z,6.00
2019-01-08T08:15:53.839Z,6.10
2019-01-08T08:16:53.816Z,5.10
2019-01-08T08:17:53.791Z,4.90
2019-01-08T08:18:53.771Z,5.50
2019-01-08T08:19:53.743Z,4.20
2019-01-08T08:20:53.723Z,5.40
2019-01-08T08:21:53.702Z,5.40
2019-01-08T08:22:53.668Z,5.20
2019-01-08T08:23:53.643Z,5.50
2019-01-08T08:24:53.618Z,5.00
2019-01-08T08:25:53.598Z,4.70
2019-01-08T08:26:53.571Z,5.10
2019-01-08T08:27:53.544Z,5.40
2019-01-08T08:28:53.520Z,4.90
2019-01-08T08:29:53.495Z,5.20
2019-01-08T08:30:58.502Z,5.40
2019-01-08T08:31:53.449Z,4.90
2019-01-08T08:32:53.424Z,4.90
2019-01-08T08:33:53.404Z,5.20
2019-01-08T08:34:53.376Z,4.90
2019-01-08T08:35:53.359Z,5.20
2019-01-08T08:36:53.327Z,4.60
2019-01-08T08:37:53.303Z,5.20
2019-01-08T08:38:53.280Z,5.40
2019-01-08T08:39:53.255Z,5.10
2019-01-08T08:40:53.230Z,4.50
2019-01-08T08:41:53.292Z,5.10
2019-01-08T08:42:53.191Z,5.10
2019-01-08T08:43:53.157Z,5.30
2019-01-08T08:44:53.132Z,5.00
2019-01-08T08:45:53.111Z,5.20
2019-01-08T08:46:53.083Z,4.70
2019-01-08T08:47:53.058Z,5.70
2019-01-08T08:48:53.035Z,5.00
2019-01-08T08:49:53.011Z,5.10
2019-01-08T08:50:52.987Z,4.60
2019-01-08T08:51:52.961Z,4.90
2019-01-08T08:52:52.937Z,4.50
2019-01-08T08:53:52.999Z,4.40
2019-01-08T08:54:52.916Z,5.40
2019-01-08T08:55:52.867Z,5.20
2019-01-08T08:56:52.839Z,4.80
2019-01-08T08:57:52.817Z,5.10
2019-01-08T08:58:52.800Z,4.70
2019-01-08T08:59:52.765Z,5.40
2019-01-08T09:00:52.742Z,4.50
2019-01-08T09:01:52.717Z,5.30
2019-01-08T09:02:52.694Z,4.40
2019-01-08T09:03:52.680Z,4.50
2019-01-08T09:04:52.649Z,5.20
2019-01-08T09:05:52.624Z,4.90
2019-01-08T09:06:52.596Z,4.00
2019-01-08T09:07:52.573Z,5.30
2019-01-08T09:08:52.547Z,4.10
2019-01-08T09:09:52.521Z,4.60
2019-01-08T09:10:52.500Z,4.20
2019-01-08T09:11:52.475Z,3.60
2019-01-08T09:12:52.449Z,3.90
2019-01-08T09:13:52.436Z,4.50
2019-01-08T09:14:52.406Z,4.00
2019-01-08T09:15:52.380Z,4.40
2019-01-08T09:16:52.356Z,4.40
2019-01-08T09:17:52.332Z,4.40
2019-01-08T09:18:52.306Z,4.30
2019-01-08T09:19:52.281Z,5.10
2019-01-08T09:20:52.254Z,4.60
2019-01-08T09:21:52.231Z,6.30
2019-01-08T09:22:52.206Z,4.50
2019-01-08T09:23:52.182Z,5.10
2019-01-08T09:24:52.159Z,3.70
2019-01-08T09:25:52.136Z,4.50
2019-01-08T09:26:52.115Z,4.60
2019-01-08T09:27:52.085Z,3.70
2019-01-08T09:28:52.058Z,3.90
2019-01-08T09:29:52.037Z,6.00
2019-01-08T09:30:52.016Z,4.20
2019-01-08T09:31:51.985Z,4.60
2019-01-08T09:32:51.962Z,4.70
2019-01-08T09:33:51.937Z,4.90
2019-01-08T09:34:51.916Z,5.10
2019-01-08T09:35:51.895Z,5.00
2019-01-08T09:36:51.870Z,5.80
2019-01-08T09:37:51.845Z,6.20
2019-01-08T09:38:51.816Z,6.40
2019-01-08T09:39:51.791Z,7.00
2019-01-08T09:40:51.770Z,5.10
2019-01-08T09:41:51.742Z,6.50
2019-01-08T09:42:51.720Z,7.30
2019-01-08T09:43:51.704Z,8.10
2019-01-08T09:44:51.669Z,6.30
2019-01-08T09:45:51.646Z,6.70
2019-01-08T09:46:51.622Z,5.90
2019-01-08T09:47:51.596Z,7.30
2019-01-08T09:48:51.572Z,7.30
2019-01-08T09:49:51.547Z,7.00
2019-01-08T09:50:51.533Z,7.40
2019-01-08T09:51:51.500Z,7.40
2019-01-08T09:52:51.472Z,6.70
2019-01-08T09:53:51.456Z,7.50
2019-01-08T09:54:51.428Z,7.20
2019-01-08T09:55:51.402Z,6.70
2019-01-08T09:56:51.388Z,7.10
2019-01-08T09:57:51.353Z,8.80
2019-01-08T09:58:51.337Z,7.40
2019-01-08T09:59:51.303Z,8.20
2019-01-08T10:00:51.289Z,7.40
2019-01-08T10:01:51.262Z,6.90
2019-01-08T10:02:51.234Z,7.90
2019-01-08T10:03:51.215Z,7.80
2019-01-08T10:04:51.181Z,8.00
2019-01-08T10:05:51.156Z,7.60
2019-01-08T10:06:51.134Z,7.80
2019-01-08T10:07:51.108Z,7.30
2019-01-08T10:08:51.084Z,7.90
2019-01-08T10:09:51.066Z,8.20
2019-01-08T10:10:51.038Z,7.70
2019-01-08T10:11:51.012Z,6.90
2019-01-08T10:12:50.988Z,7.50
2019-01-08T10:13:50.964Z,6.80
2019-01-08T10:14:50.953Z,7.90
2019-01-08T10:15:50.915Z,8.80
2019-01-08T10:16:50.891Z,7.80
2019-01-08T10:17:50.875Z,7.10
2019-01-08T10:18:50.850Z,8.00
2019-01-08T10:19:50.820Z,7.00
2019-01-08T10:20:50.793Z,7.60
2019-01-08T10:21:50.770Z,7.20
2019-01-08T10:22:50.748Z,7.80
2019-01-08T10:23:50.723Z,6.60
2019-01-08T10:24:50.699Z,7.20
2019-01-08T10:25:50.675Z,7.00
2019-01-08T10:26:50.650Z,8.40
2019-01-08T10:27:50.629Z,7.30
2019-01-08T10:28:50.599Z,7.80
2019-01-08T10:29:50.576Z,7.10
2019-01-08T10:30:50.562Z,6.90
2019-01-08T10:31:50.528Z,7.30
2019-01-08T10:32:50.504Z,7.80
2019-01-08T10:33:50.480Z,6.80
2019-01-08T10:34:50.458Z,7.40
2019-01-08T10:35:50.430Z,7.30
2019-01-08T10:36:50.410Z,7.10
2019-01-08T10:37:50.385Z,7.20
2019-01-08T10:38:50.359Z,7.60
2019-01-08T10:39:50.341Z,7.60
2019-01-08T10:40:50.311Z,7.10
2019-01-08T10:41:50.301Z,7.40
2019-01-08T10:42:50.266Z,8.30
2019-01-08T10:43:50.239Z,7.30
2019-01-08T10:44:50.215Z,7.40
2019-01-08T10:45:50.191Z,6.70
2019-01-08T10:46:50.165Z,8.10
2019-01-08T10:47:50.141Z,7.60
2019-01-08T10:48:50.118Z,7.40
2019-01-08T10:49:50.095Z,7.00
2019-01-08T10:50:50.070Z,7.60
2019-01-08T10:51:50.049Z,7.30
2019-01-08T10:52:50.021Z,7.00
2019-01-08T10:53:50.007Z,7.40
2019-01-08T10:54:49.974Z,7.20
2019-01-08T10:55:49.949Z,6.70
2019-01-08T10:56:49.924Z,6.50
2019-01-08T10:57:49.903Z,6.60
2019-01-08T10:58:49.878Z,7.00
2019-01-08T10:59:49.852Z,5.90
2019-01-08T11:00:49.830Z,6.70
2019-01-08T11:01:49.812Z,8.20
2019-01-08T11:02:49.779Z,7.00
2019-01-08T11:03:49.757Z,6.30
2019-01-08T11:04:49.737Z,6.20
2019-01-08T11:05:49.712Z,6.60
2019-01-08T11:06:49.685Z,6.40
2019-01-08T11:07:49.663Z,5.80
2019-01-08T11:08:49.637Z,5.20
2019-01-08T11:09:49.612Z,5.40
2019-01-08T11:10:49.591Z,6.00
2019-01-08T11:11:49.572Z,5.70
2019-01-08T11:12:49.539Z,6.20
2019-01-08T11:13:49.515Z,6.00
2019-01-08T11:14:49.502Z,6.60
2019-01-08T11:15:49.470Z,5.80
2019-01-08T11:16:50.485Z,6.40
2019-01-08T11:17:49.423Z,7.10
2019-01-08T11:18:49.400Z,6.50
2019-01-08T11:19:49.372Z,6.60
2019-01-08T11:20:49.354Z,6.60
2019-01-08T11:21:49.324Z,6.40
2019-01-08T11:22:49.310Z,6.90
2019-01-08T11:23:49.278Z,7.00
2019-01-08T11:24:49.257Z,7.30
2019-01-08T11:25:49.227Z,7.90
2019-01-08T11:26:49.206Z,7.40
2019-01-08T11:27:49.178Z,8.20
2019-01-08T11:28:49.155Z,7.40
2019-01-08T11:29:49.132Z,7.00
2019-01-08T11:30:49.107Z,7.20
2019-01-08T11:31:49.304Z,8.40
2019-01-08T11:32:49.063Z,6.10
2019-01-08T11:33:49.034Z,6.60
2019-01-08T11:34:49.012Z,7.60
2019-01-08T11:35:49.001Z,7.50
2019-01-08T11:36:48.961Z,7.10
2019-01-08T11:37:48.945Z,8.30
2019-01-08T11:38:48.918Z,7.10
2019-01-08T11:39:48.890Z,7.20
2019-01-08T11:40:48.864Z,6.50
2019-01-08T11:41:48.840Z,7.30
2019-01-08T11:42:48.830Z,7.50
2019-01-08T11:43:48.795Z,7.80
2019-01-08T11:44:48.771Z,6.90
2019-01-08T11:45:48.752Z,7.60
2019-01-08T11:46:48.730Z,6.90
2019-01-08T11:47:50.713Z,6.70
2019-01-08T11:48:48.680Z,6.90
2019-01-08T11:49:48.715Z,6.30
2019-01-08T11:50:48.626Z,8.10
2019-01-08T11:51:48.601Z,5.70
2019-01-08T11:52:48.582Z,5.90
2019-01-08T11:53:48.552Z,6.70
2019-01-08T11:54:48.530Z,7.30
2019-01-08T11:55:48.506Z,6.00
2019-01-08T11:56:48.480Z,7.20
2019-01-08T11:57:50.136Z,6.90
2019-01-08T11:58:48.433Z,6.80
2019-01-08T11:59:48.413Z,6.10
2019-01-08T12:00:48.384Z,7.00
2019-01-08T12:01:48.359Z,6.70
2019-01-08T12:02:48.334Z,8.60
2019-01-08T12:03:48.314Z,6.70
2019-01-08T12:04:48.286Z,7.40
2019-01-08T12:05:48.266Z,6.60
2019-01-08T12:06:48.247Z,5.90
2019-01-08T12:07:48.219Z,5.90
2019-01-08T12:08:48.190Z,6.20
2019-01-08T12:09:48.165Z,5.90
2019-01-08T12:10:48.152Z,6.60
2019-01-08T12:11:48.117Z,6.20
2019-01-08T12:12:48.098Z,7.00
2019-01-08T12:13:48.076Z,5.50
2019-01-08T12:14:48.048Z,7.20
2019-01-08T12:15:48.028Z,7.00
2019-01-08T12:16:48.002Z,6.90
2019-01-08T12:17:47.979Z,7.40
2019-01-08T12:18:47.952Z,8.10
2019-01-08T12:19:47.934Z,7.10
2019-01-08T12:20:47.903Z,7.80
2019-01-08T12:21:47.879Z,7.60
2019-01-08T12:22:47.861Z,7.50
2019-01-08T12:23:47.830Z,8.30
2019-01-08T12:24:47.806Z,8.30
2019-01-08T12:25:47.781Z,7.80
2019-01-08T12:26:47.764Z,8.10
2019-01-08T12:27:47.737Z,7.40
2019-01-08T12:28:47.715Z,8.70
2019-01-08T12:29:47.694Z,7.50
2019-01-08T12:30:47.664Z,8.30
2019-01-08T12:31:47.638Z,7.50
2019-01-08T12:32:47.615Z,7.70
2019-01-08T12:33:47.592Z,7.20
2019-01-08T12:34:47.576Z,7.90
2019-01-08T12:35:47.551Z,7.10
2019-01-08T12:36:47.519Z,6.90
2019-01-08T12:37:47.503Z,8.40
2019-01-08T12:38:47.471Z,6.90
2019-01-08T12:39:47.446Z,7.80
2019-01-08T12:40:47.427Z,8.70
2019-01-08T12:41:47.403Z,7.60
2019-01-08T12:42:47.377Z,8.50
2019-01-08T12:43:47.349Z,8.10
2019-01-08T12:44:47.329Z,7.90
2019-01-08T12:45:47.300Z,7.70
2019-01-08T12:46:47.283Z,7.30
2019-01-08T12:47:47.260Z,7.30
2019-01-08T12:48:47.229Z,6.30
2019-01-08T12:49:47.211Z,6.20
2019-01-08T12:50:47.183Z,6.00
2019-01-08T12:51:47.158Z,5.60
2019-01-08T12:52:47.132Z,4.60
2019-01-08T12:53:47.115Z,4.70
2019-01-08T12:54:47.085Z,4.80
2019-01-08T12:55:47.068Z,4.80
2019-01-08T12:56:47.044Z,4.30
2019-01-08T12:57:47.021Z,4.40
2019-01-08T12:58:46.986Z,4.40
2019-01-08T12:59:46.968Z,5.10
2019-01-08T13:00:46.937Z,5.10
2019-01-08T13:01:46.921Z,4.40
2019-01-08T13:02:46.890Z,4.50
2019-01-08T13:03:46.869Z,5.90
2019-01-08T13:04:46.852Z,5.40
2019-01-08T13:05:46.817Z,5.20
2019-01-08T13:06:46.813Z,5.40
2019-01-08T13:07:46.769Z,6.40
2019-01-08T13:08:46.745Z,6.30
2019-01-08T13:09:46.724Z,6.80
2019-01-08T13:10:46.701Z,6.60
2019-01-08T13:11:46.682Z,7.00
2019-01-08T13:12:46.653Z,5.80
2019-01-08T13:13:46.634Z,5.80
2019-01-08T13:14:46.605Z,5.60
2019-01-08T13:15:46.574Z,5.60
2019-01-08T13:16:46.564Z,4.80
2019-01-08T13:17:46.531Z,4.00